sensor_id;sensor_type;location;lat;lon;timestamp;pressure;altitude;pressure_sealevel;temperature;humidity
37792;BME280;29527;55.766;37.570;2023-02-12T00:01:19;98372.03;;;1.17;72.21
37792;BME280;29527;55.766;37.570;2023-02-12T00:03:45;98370.75;;;1.09;71.90
37792;BME280;29527;55.766;37.570;2023-02-12T00:06:11;98387.59;;;1.07;71.96
37792;BME280;29527;55.766;37.570;2023-02-12T00:08:37;98389.69;;;1.02;71.09
37792;BME280;29527;55.766;37.570;2023-02-12T00:11:18;98405.31;;;1.05;71.21
37792;BME280;29527;55.766;37.570;2023-02-12T00:13:44;98404.84;;;0.98;70.86
37792;BME280;29527;55.766;37.570;2023-02-12T00:16:13;98403.81;;;1.00;70.37
37792;BME280;29527;55.766;37.570;2023-02-12T00:18:38;98410.81;;;0.87;69.99
37792;BME280;29527;55.766;37.570;2023-02-12T00:21:05;98421.94;;;0.78;69.79
37792;BME280;29527;55.766;37.570;2023-02-12T00:23:33;98425.53;;;0.77;70.26
37792;BME280;29527;55.766;37.570;2023-02-12T00:25:59;98429.19;;;0.74;69.64
37792;BME280;29527;55.766;37.570;2023-02-12T00:28:25;98445.47;;;0.66;69.60
37792;BME280;29527;55.766;37.570;2023-02-12T00:30:51;98448.28;;;0.63;69.58
37792;BME280;29527;55.766;37.570;2023-02-12T00:33:16;98447.44;;;0.63;69.61
37792;BME280;29527;55.766;37.570;2023-02-12T00:35:42;98460.22;;;0.54;69.63
37792;BME280;29527;55.766;37.570;2023-02-12T00:38:07;98465.13;;;0.46;69.67
37792;BME280;29527;55.766;37.570;2023-02-12T00:40:32;98465.69;;;0.37;69.93
37792;BME280;29527;55.766;37.570;2023-02-12T00:42:58;98494.00;;;0.33;69.44
37792;BME280;29527;55.766;37.570;2023-02-12T00:45:23;98498.09;;;0.23;69.78
37792;BME280;29527;55.766;37.570;2023-02-12T00:47:49;98499.13;;;0.20;70.11
37792;BME280;29527;55.766;37.570;2023-02-12T00:50:14;98501.47;;;0.10;69.84
37792;BME280;29527;55.766;37.570;2023-02-12T00:52:40;98513.94;;;0.07;70.00
37792;BME280;29527;55.766;37.570;2023-02-12T00:55:05;98526.53;;;0.02;70.23
37792;BME280;29527;55.766;37.570;2023-02-12T00:57:31;98530.03;;;0.02;70.19
37792;BME280;29527;55.766;37.570;2023-02-12T00:59:58;98534.53;;;0.00;70.15
37792;BME280;29527;55.766;37.570;2023-02-12T01:02:23;98536.56;;;-0.05;69.85
37792;BME280;29527;55.766;37.570;2023-02-12T01:04:49;98535.06;;;-0.09;69.67
37792;BME280;29527;55.766;37.570;2023-02-12T01:07:14;98526.63;;;-0.31;69.50
37792;BME280;29527;55.766;37.570;2023-02-12T01:09:40;98527.63;;;-0.33;69.74
37792;BME280;29527;55.766;37.570;2023-02-12T01:12:05;98569.84;;;-0.20;69.31
37792;BME280;29527;55.766;37.570;2023-02-12T01:14:31;98583.53;;;-0.30;69.78
37792;BME280;29527;55.766;37.570;2023-02-12T01:16:56;98579.41;;;-0.34;69.12
37792;BME280;29527;55.766;37.570;2023-02-12T01:19:22;98604.00;;;-0.35;69.20
37792;BME280;29527;55.766;37.570;2023-02-12T01:21:47;98601.19;;;-0.48;68.81
37792;BME280;29527;55.766;37.570;2023-02-12T01:24:13;98607.47;;;-0.50;68.72
37792;BME280;29527;55.766;37.570;2023-02-12T01:26:38;98631.72;;;-0.45;69.09
37792;BME280;29527;55.766;37.570;2023-02-12T01:29:06;98620.38;;;-0.46;68.68
37792;BME280;29527;55.766;37.570;2023-02-12T01:31:35;98631.81;;;-0.47;68.63
37792;BME280;29527;55.766;37.570;2023-02-12T01:34:03;98636.22;;;-0.47;68.49
37792;BME280;29527;55.766;37.570;2023-02-12T01:36:29;98647.84;;;-0.51;68.71
37792;BME280;29527;55.766;37.570;2023-02-12T01:38:55;98651.47;;;-0.54;68.25
37792;BME280;29527;55.766;37.570;2023-02-12T01:41:27;98652.66;;;-0.60;68.58
37792;BME280;29527;55.766;37.570;2023-02-12T01:46:47;98674.09;;;-0.67;68.65
37792;BME280;29527;55.766;37.570;2023-02-12T01:49:23;98683.97;;;-0.73;68.72
37792;BME280;29527;55.766;37.570;2023-02-12T01:51:54;98691.72;;;-0.69;68.27
37792;BME280;29527;55.766;37.570;2023-02-12T01:54:24;98695.75;;;-0.80;68.31
37792;BME280;29527;55.766;37.570;2023-02-12T01:56:51;98708.91;;;-0.80;68.30
37792;BME280;29527;55.766;37.570;2023-02-12T01:59:19;98703.81;;;-0.83;68.71
37792;BME280;29527;55.766;37.570;2023-02-12T02:01:45;98691.06;;;-0.91;68.50
37792;BME280;29527;55.766;37.570;2023-02-12T02:04:13;98703.66;;;-0.80;68.11
37792;BME280;29527;55.766;37.570;2023-02-12T02:06:51;98724.81;;;-0.83;67.77
37792;BME280;29527;55.766;37.570;2023-02-12T02:09:20;98724.81;;;-0.83;67.82
37792;BME280;29527;55.766;37.570;2023-02-12T02:11:46;98732.94;;;-0.88;67.53
37792;BME280;29527;55.766;37.570;2023-02-12T02:14:30;98736.44;;;-0.87;68.22
37792;BME280;29527;55.766;37.570;2023-02-12T02:31:25;98801.03;;;-0.83;68.02
37792;BME280;29527;55.766;37.570;2023-02-12T02:34:36;98807.84;;;-0.79;68.32
37792;BME280;29527;55.766;37.570;2023-02-12T02:37:26;98808.78;;;-0.80;67.37
37792;BME280;29527;55.766;37.570;2023-02-12T02:39:58;98810.94;;;-0.88;67.26
37792;BME280;29527;55.766;37.570;2023-02-12T02:42:38;98824.16;;;-0.90;67.45
37792;BME280;29527;55.766;37.570;2023-02-12T02:47:44;98820.19;;;-0.98;67.24
37792;BME280;29527;55.766;37.570;2023-02-12T02:50:14;98844.34;;;-1.09;67.40
37792;BME280;29527;55.766;37.570;2023-02-12T02:52:47;98837.34;;;-1.09;67.41
37792;BME280;29527;55.766;37.570;2023-02-12T02:55:16;98859.28;;;-1.10;66.93
37792;BME280;29527;55.766;37.570;2023-02-12T02:57:56;98855.88;;;-1.12;67.21
37792;BME280;29527;55.766;37.570;2023-02-12T03:00:38;98869.78;;;-1.10;66.84
37792;BME280;29527;55.766;37.570;2023-02-12T03:03:15;98867.47;;;-1.16;67.64
37792;BME280;29527;55.766;37.570;2023-02-12T03:05:46;98876.47;;;-1.22;67.57
37792;BME280;29527;55.766;37.570;2023-02-12T03:08:17;98894.94;;;-1.23;67.58
37792;BME280;29527;55.766;37.570;2023-02-12T03:10:52;98887.03;;;-1.23;67.32
37792;BME280;29527;55.766;37.570;2023-02-12T03:13:33;98880.25;;;-1.27;67.53
37792;BME280;29527;55.766;37.570;2023-02-12T03:18:55;98917.00;;;-1.27;67.88
37792;BME280;29527;55.766;37.570;2023-02-12T03:21:51;98930.78;;;-1.22;68.15
37792;BME280;29527;55.766;37.570;2023-02-12T03:27:06;98937.88;;;-1.24;67.53
37792;BME280;29527;55.766;37.570;2023-02-12T03:29:32;98907.84;;;-1.57;67.34
37792;BME280;29527;55.766;37.570;2023-02-12T03:32:26;98952.22;;;-1.32;68.13
37792;BME280;29527;55.766;37.570;2023-02-12T03:35:09;98967.97;;;-1.32;67.94
37792;BME280;29527;55.766;37.570;2023-02-12T03:37:44;98975.84;;;-1.32;67.52
37792;BME280;29527;55.766;37.570;2023-02-12T03:40:33;98978.34;;;-1.28;67.19
37792;BME280;29527;55.766;37.570;2023-02-12T03:45:41;98984.66;;;-1.33;67.39
37792;BME280;29527;55.766;37.570;2023-02-12T03:48:15;99004.88;;;-1.35;67.09
37792;BME280;29527;55.766;37.570;2023-02-12T03:53:15;99023.56;;;-1.41;66.65
37792;BME280;29527;55.766;37.570;2023-02-12T03:55:43;99015.91;;;-1.47;66.35
37792;BME280;29527;55.766;37.570;2023-02-12T03:58:18;99020.47;;;-1.51;66.25
37792;BME280;29527;55.766;37.570;2023-02-12T04:00:45;99035.59;;;-1.56;66.42
37792;BME280;29527;55.766;37.570;2023-02-12T04:03:10;99026.34;;;-1.65;66.59
37792;BME280;29527;55.766;37.570;2023-02-12T04:05:36;99027.72;;;-1.56;66.20
37792;BME280;29527;55.766;37.570;2023-02-12T04:08:04;99004.28;;;-1.81;66.39
37792;BME280;29527;55.766;37.570;2023-02-12T04:10:58;99043.47;;;-1.56;66.08
37792;BME280;29527;55.766;37.570;2023-02-12T04:13:41;99052.03;;;-1.73;65.39
37792;BME280;29527;55.766;37.570;2023-02-12T04:16:14;99042.22;;;-1.68;65.15
37792;BME280;29527;55.766;37.570;2023-02-12T04:18:44;99073.03;;;-1.73;65.17
37792;BME280;29527;55.766;37.570;2023-02-12T04:24:04;99087.81;;;-1.70;65.42
37792;BME280;29527;55.766;37.570;2023-02-12T04:26:58;99074.72;;;-1.72;65.13
37792;BME280;29527;55.766;37.570;2023-02-12T04:32:42;99104.59;;;-1.75;65.28
37792;BME280;29527;55.766;37.570;2023-02-12T04:35:22;99100.13;;;-1.73;64.82
37792;BME280;29527;55.766;37.570;2023-02-12T04:37:54;99116.06;;;-1.77;64.01
37792;BME280;29527;55.766;37.570;2023-02-12T04:40:21;99104.97;;;-1.84;63.59
37792;BME280;29527;55.766;37.570;2023-02-12T04:42:49;99139.03;;;-1.82;64.34
37792;BME280;29527;55.766;37.570;2023-02-12T04:45:29;99116.06;;;-1.77;63.87
37792;BME280;29527;55.766;37.570;2023-02-12T04:47:54;99121.13;;;-1.95;63.13
37792;BME280;29527;55.766;37.570;2023-02-12T04:50:20;99118.28;;;-2.11;63.69
37792;BME280;29527;55.766;37.570;2023-02-12T04:52:46;99147.72;;;-2.03;63.58
37792;BME280;29527;55.766;37.570;2023-02-12T04:55:12;99132.63;;;-1.97;63.75
37792;BME280;29527;55.766;37.570;2023-02-12T04:57:38;99151.13;;;-2.00;63.36
37792;BME280;29527;55.766;37.570;2023-02-12T05:00:07;99123.91;;;-2.20;63.49
37792;BME280;29527;55.766;37.570;2023-02-12T05:02:33;99145.88;;;-2.00;63.58
37792;BME280;29527;55.766;37.570;2023-02-12T05:04:58;99177.94;;;-1.94;62.70
37792;BME280;29527;55.766;37.570;2023-02-12T05:07:24;99177.91;;;-1.92;63.33
37792;BME280;29527;55.766;37.570;2023-02-12T05:09:49;99196.63;;;-2.02;63.17
37792;BME280;29527;55.766;37.570;2023-02-12T05:12:15;99186.44;;;-2.09;63.98
37792;BME280;29527;55.766;37.570;2023-02-12T05:14:40;99188.81;;;-2.03;64.26
37792;BME280;29527;55.766;37.570;2023-02-12T05:17:05;99175.56;;;-2.22;63.37
37792;BME280;29527;55.766;37.570;2023-02-12T05:19:31;99212.25;;;-1.98;63.81
37792;BME280;29527;55.766;37.570;2023-02-12T05:21:56;99215.16;;;-2.06;64.51
37792;BME280;29527;55.766;37.570;2023-02-12T05:24:22;99223.97;;;-2.07;63.83
37792;BME280;29527;55.766;37.570;2023-02-12T05:26:48;99230.75;;;-2.02;63.89
37792;BME280;29527;55.766;37.570;2023-02-12T05:29:14;99229.81;;;-2.00;63.87
37792;BME280;29527;55.766;37.570;2023-02-12T05:31:39;99236.69;;;-1.98;63.65
37792;BME280;29527;55.766;37.570;2023-02-12T05:34:06;99247.91;;;-1.93;63.77
37792;BME280;29527;55.766;37.570;2023-02-12T05:36:34;99256.56;;;-1.91;63.33
37792;BME280;29527;55.766;37.570;2023-02-12T05:38:59;99259.19;;;-1.91;63.46
37792;BME280;29527;55.766;37.570;2023-02-12T05:41:25;99258.44;;;-1.94;63.41
37792;BME280;29527;55.766;37.570;2023-02-12T05:43:52;99278.28;;;-1.87;63.42
37792;BME280;29527;55.766;37.570;2023-02-12T05:46:19;99239.53;;;-2.03;63.16
37792;BME280;29527;55.766;37.570;2023-02-12T05:48:44;99278.94;;;-1.82;63.61
37792;BME280;29527;55.766;37.570;2023-02-12T05:51:17;99305.19;;;-1.82;62.89
37792;BME280;29527;55.766;37.570;2023-02-12T05:53:44;99279.31;;;-1.91;63.01
37792;BME280;29527;55.766;37.570;2023-02-12T05:58:47;99304.88;;;-1.96;62.66
37792;BME280;29527;55.766;37.570;2023-02-12T06:01:34;99301.63;;;-2.03;62.90
37792;BME280;29527;55.766;37.570;2023-02-12T06:04:01;99302.53;;;-2.04;63.63
37792;BME280;29527;55.766;37.570;2023-02-12T06:06:28;99296.94;;;-1.95;63.43
37792;BME280;29527;55.766;37.570;2023-02-12T06:08:53;99319.63;;;-1.94;62.41
37792;BME280;29527;55.766;37.570;2023-02-12T06:11:19;99325.69;;;-1.92;62.86
37792;BME280;29527;55.766;37.570;2023-02-12T06:13:45;99332.06;;;-1.99;62.11
37792;BME280;29527;55.766;37.570;2023-02-12T06:16:19;99322.22;;;-1.92;62.20
37792;BME280;29527;55.766;37.570;2023-02-12T06:18:44;99328.31;;;-1.92;62.14
37792;BME280;29527;55.766;37.570;2023-02-12T06:21:10;99342.97;;;-1.86;62.04
37792;BME280;29527;55.766;37.570;2023-02-12T06:23:35;99345.38;;;-1.80;61.55
37792;BME280;29527;55.766;37.570;2023-02-12T06:26:01;99358.31;;;-1.75;61.50
37792;BME280;29527;55.766;37.570;2023-02-12T06:28:26;99362.44;;;-1.68;61.66
37792;BME280;29527;55.766;37.570;2023-02-12T06:30:52;99381.50;;;-1.63;60.64
37792;BME280;29527;55.766;37.570;2023-02-12T06:33:17;99381.13;;;-1.53;60.44
37792;BME280;29527;55.766;37.570;2023-02-12T06:35:43;99391.75;;;-1.56;60.30
37792;BME280;29527;55.766;37.570;2023-02-12T06:38:09;99408.38;;;-1.56;60.63
37792;BME280;29527;55.766;37.570;2023-02-12T06:40:35;99412.63;;;-1.53;59.74
37792;BME280;29527;55.766;37.570;2023-02-12T06:43:00;99415.25;;;-1.53;59.41
37792;BME280;29527;55.766;37.570;2023-02-12T06:45:26;99418.97;;;-1.59;59.31
37792;BME280;29527;55.766;37.570;2023-02-12T06:47:51;99432.16;;;-1.61;59.43
37792;BME280;29527;55.766;37.570;2023-02-12T06:50:17;99426.91;;;-1.61;60.09
37792;BME280;29527;55.766;37.570;2023-02-12T06:52:43;99442.66;;;-1.61;59.49
37792;BME280;29527;55.766;37.570;2023-02-12T06:55:08;99431.28;;;-1.61;59.54
37792;BME280;29527;55.766;37.570;2023-02-12T06:57:34;99434.78;;;-1.61;59.35
37792;BME280;29527;55.766;37.570;2023-02-12T06:59:59;99448.34;;;-1.49;59.48
37792;BME280;29527;55.766;37.570;2023-02-12T07:02:25;99451.09;;;-1.52;58.98
37792;BME280;29527;55.766;37.570;2023-02-12T07:04:50;99450.06;;;-1.48;59.17
37792;BME280;29527;55.766;37.570;2023-02-12T07:07:15;99452.69;;;-1.48;58.30
37792;BME280;29527;55.766;37.570;2023-02-12T07:09:41;99473.38;;;-1.39;58.97
37792;BME280;29527;55.766;37.570;2023-02-12T07:12:06;99470.91;;;-1.43;58.02
37792;BME280;29527;55.766;37.570;2023-02-12T07:14:32;99459.22;;;-1.59;57.95
37792;BME280;29527;55.766;37.570;2023-02-12T07:16:57;99478.00;;;-1.46;57.77
37792;BME280;29527;55.766;37.570;2023-02-12T07:19:23;99471.78;;;-1.43;57.98
37792;BME280;29527;55.766;37.570;2023-02-12T07:21:49;99469.03;;;-1.40;57.26
37792;BME280;29527;55.766;37.570;2023-02-12T07:24:15;99496.41;;;-1.47;57.33
37792;BME280;29527;55.766;37.570;2023-02-12T07:26:42;99472.97;;;-1.52;58.32
37792;BME280;29527;55.766;37.570;2023-02-12T07:29:08;99482.22;;;-1.41;56.65
37792;BME280;29527;55.766;37.570;2023-02-12T07:31:33;99488.22;;;-1.38;56.76
37792;BME280;29527;55.766;37.570;2023-02-12T07:33:59;99501.25;;;-1.35;56.55
37792;BME280;29527;55.766;37.570;2023-02-12T07:36:30;99502.84;;;-1.31;57.06
37792;BME280;29527;55.766;37.570;2023-02-12T07:38:57;99513.34;;;-1.31;55.81
37792;BME280;29527;55.766;37.570;2023-02-12T07:41:27;99519.06;;;-1.43;56.02
37792;BME280;29527;55.766;37.570;2023-02-12T07:44:02;99530.28;;;-1.39;56.26
37792;BME280;29527;55.766;37.570;2023-02-12T07:46:36;99525.69;;;-1.33;55.67
37792;BME280;29527;55.766;37.570;2023-02-12T07:49:04;99528.41;;;-1.36;56.03
37792;BME280;29527;55.766;37.570;2023-02-12T07:51:30;99517.28;;;-1.42;56.48
37792;BME280;29527;55.766;37.570;2023-02-12T07:53:57;99536.72;;;-1.23;55.73
37792;BME280;29527;55.766;37.570;2023-02-12T07:56:25;99541.00;;;-1.20;55.51
37792;BME280;29527;55.766;37.570;2023-02-12T07:58:55;99548.97;;;-1.23;55.80
37792;BME280;29527;55.766;37.570;2023-02-12T08:01:29;99556.75;;;-1.20;55.65
37792;BME280;29527;55.766;37.570;2023-02-12T08:04:00;99556.66;;;-1.17;55.68
37792;BME280;29527;55.766;37.570;2023-02-12T08:06:29;99561.78;;;-1.14;54.94
37792;BME280;29527;55.766;37.570;2023-02-12T08:08:58;99569.59;;;-1.12;54.84
37792;BME280;29527;55.766;37.570;2023-02-12T08:11:25;99579.16;;;-1.10;55.12
37792;BME280;29527;55.766;37.570;2023-02-12T08:13:51;99587.16;;;-1.13;54.63
37792;BME280;29527;55.766;37.570;2023-02-12T08:16:19;99602.78;;;-1.10;55.44
37792;BME280;29527;55.766;37.570;2023-02-12T08:18:45;99595.56;;;-1.03;54.79
37792;BME280;29527;55.766;37.570;2023-02-12T08:21:12;99588.63;;;-1.06;54.62
37792;BME280;29527;55.766;37.570;2023-02-12T08:23:39;99608.41;;;-0.95;54.12
37792;BME280;29527;55.766;37.570;2023-02-12T08:26:10;99599.72;;;-0.97;54.59
37792;BME280;29527;55.766;37.570;2023-02-12T08:28:39;99602.00;;;-0.88;55.22
37792;BME280;29527;55.766;37.570;2023-02-12T08:31:07;99592.56;;;-0.70;53.90
37792;BME280;29527;55.766;37.570;2023-02-12T08:33:33;99619.81;;;-0.73;53.42
37792;BME280;29527;55.766;37.570;2023-02-12T08:36:10;99626.75;;;-0.70;53.82
37792;BME280;29527;55.766;37.570;2023-02-12T08:38:36;99611.38;;;-0.81;52.74
37792;BME280;29527;55.766;37.570;2023-02-12T08:41:04;99625.97;;;-0.72;53.25
37792;BME280;29527;55.766;37.570;2023-02-12T08:43:30;99628.63;;;-0.74;52.56
37792;BME280;29527;55.766;37.570;2023-02-12T08:48:32;99639.78;;;-0.67;52.95
37792;BME280;29527;55.766;37.570;2023-02-12T08:51:09;99639.72;;;-0.41;52.68
37792;BME280;29527;55.766;37.570;2023-02-12T08:53:36;99651.16;;;-0.42;51.99
37792;BME280;29527;55.766;37.570;2023-02-12T08:56:02;99646.03;;;-0.46;51.30
37792;BME280;29527;55.766;37.570;2023-02-12T08:58:27;99636.81;;;-0.57;51.48
37792;BME280;29527;55.766;37.570;2023-02-12T09:00:53;99643.84;;;-0.58;51.96
37792;BME280;29527;55.766;37.570;2023-02-12T09:03:18;99636.63;;;-0.53;51.47
37792;BME280;29527;55.766;37.570;2023-02-12T09:05:45;99640.66;;;-0.42;51.11
37792;BME280;29527;55.766;37.570;2023-02-12T09:08:10;99658.13;;;-0.41;51.00
37792;BME280;29527;55.766;37.570;2023-02-12T09:10:40;99671.00;;;-0.34;50.92
37792;BME280;29527;55.766;37.570;2023-02-12T09:13:08;99675.75;;;-0.44;51.18
37792;BME280;29527;55.766;37.570;2023-02-12T09:15:41;99666.47;;;-0.54;50.99
37792;BME280;29527;55.766;37.570;2023-02-12T09:18:08;99680.50;;;-0.53;50.65
37792;BME280;29527;55.766;37.570;2023-02-12T09:20:36;99686.16;;;-0.64;51.31
37792;BME280;29527;55.766;37.570;2023-02-12T09:23:02;99691.41;;;-0.64;50.97
37792;BME280;29527;55.766;37.570;2023-02-12T09:25:28;99681.63;;;-0.61;50.51
37792;BME280;29527;55.766;37.570;2023-02-12T09:27:54;99708.50;;;-0.52;50.43
37792;BME280;29527;55.766;37.570;2023-02-12T09:30:20;99682.84;;;-0.69;49.92
37792;BME280;29527;55.766;37.570;2023-02-12T09:32:46;99701.31;;;-0.73;50.10
37792;BME280;29527;55.766;37.570;2023-02-12T09:35:11;99690.22;;;-0.55;50.22
37792;BME280;29527;55.766;37.570;2023-02-12T09:37:37;99691.66;;;-0.47;49.16
37792;BME280;29527;55.766;37.570;2023-02-12T09:40:05;99696.22;;;-0.52;49.65
37792;BME280;29527;55.766;37.570;2023-02-12T09:45:21;99710.13;;;-0.02;49.85
37792;BME280;29527;55.766;37.570;2023-02-12T09:47:56;99706.13;;;0.11;49.41
37792;BME280;29527;55.766;37.570;2023-02-12T09:50:47;99687.38;;;0.19;49.04
37792;BME280;29527;55.766;37.570;2023-02-12T09:53:18;99704.16;;;0.17;48.88
37792;BME280;29527;55.766;37.570;2023-02-12T09:55:45;99707.41;;;0.23;48.90
37792;BME280;29527;55.766;37.570;2023-02-12T09:58:21;99714.88;;;0.34;48.53
37792;BME280;29527;55.766;37.570;2023-02-12T10:00:52;99715.72;;;0.35;47.77
37792;BME280;29527;55.766;37.570;2023-02-12T10:03:18;99720.56;;;0.46;47.90
37792;BME280;29527;55.766;37.570;2023-02-12T10:05:58;99728.91;;;0.57;48.19
37792;BME280;29527;55.766;37.570;2023-02-12T10:17:27;99745.06;;;-0.45;49.15
37792;BME280;29527;55.766;37.570;2023-02-12T10:26:41;99757.78;;;-0.83;50.60
37792;BME280;29527;55.766;37.570;2023-02-12T10:28:38;99760.63;;;-0.64;49.66
37792;BME280;29527;55.766;37.570;2023-02-12T10:31:08;99759.47;;;-0.31;49.13
37792;BME280;29527;55.766;37.570;2023-02-12T10:33:45;99750.66;;;-0.06;49.04
37792;BME280;29527;55.766;37.570;2023-02-12T10:38:54;99770.56;;;-0.47;48.34
37792;BME280;29527;55.766;37.570;2023-02-12T10:41:23;99777.06;;;-0.82;49.78
37792;BME280;29527;55.766;37.570;2023-02-12T10:43:49;99776.00;;;-1.04;49.73
37792;BME280;29527;55.766;37.570;2023-02-12T10:46:15;99781.03;;;-0.97;50.13
37792;BME280;29527;55.766;37.570;2023-02-12T10:48:44;99788.56;;;-0.87;49.58
37792;BME280;29527;55.766;37.570;2023-02-12T10:53:54;99780.94;;;-0.67;50.27
37792;BME280;29527;55.766;37.570;2023-02-12T10:56:21;99795.22;;;-0.51;49.92
37792;BME280;29527;55.766;37.570;2023-02-12T10:58:51;99791.53;;;-0.45;50.11
37792;BME280;29527;55.766;37.570;2023-02-12T11:01:24;99786.97;;;-0.40;50.18
37792;BME280;29527;55.766;37.570;2023-02-12T11:03:51;99804.31;;;-0.34;49.97
37792;BME280;29527;55.766;37.570;2023-02-12T11:06:22;99806.81;;;-0.31;49.84
37792;BME280;29527;55.766;37.570;2023-02-12T11:08:50;99812.56;;;-0.45;49.05
37792;BME280;29527;55.766;37.570;2023-02-12T11:11:22;99817.63;;;-0.64;49.70
37792;BME280;29527;55.766;37.570;2023-02-12T11:14:05;99824.56;;;-0.89;49.80
37792;BME280;29527;55.766;37.570;2023-02-12T11:16:36;99817.81;;;-0.96;49.97
37792;BME280;29527;55.766;37.570;2023-02-12T11:19:07;99828.41;;;-0.99;50.26
37792;BME280;29527;55.766;37.570;2023-02-12T11:21:34;99824.72;;;-1.20;50.15
37792;BME280;29527;55.766;37.570;2023-02-12T11:24:29;99836.78;;;-1.14;51.19
37792;BME280;29527;55.766;37.570;2023-02-12T11:29:36;99844.22;;;-1.56;50.73
37792;BME280;29527;55.766;37.570;2023-02-12T11:32:04;99817.72;;;-1.78;51.28
37792;BME280;29527;55.766;37.570;2023-02-12T11:34:33;99848.94;;;-1.69;51.18
37792;BME280;29527;55.766;37.570;2023-02-12T11:36:59;99822.25;;;-1.83;52.06
37792;BME280;29527;55.766;37.570;2023-02-12T11:39:35;99851.84;;;-1.48;51.94
37792;BME280;29527;55.766;37.570;2023-02-12T11:42:05;99855.94;;;-1.39;51.42
37792;BME280;29527;55.766;37.570;2023-02-12T11:44:41;99842.91;;;-1.42;51.05
37792;BME280;29527;55.766;37.570;2023-02-12T11:47:10;99864.25;;;-1.53;51.68
37792;BME280;29527;55.766;37.570;2023-02-12T11:49:55;99867.78;;;-1.54;51.85
37792;BME280;29527;55.766;37.570;2023-02-12T11:52:25;99864.13;;;-1.49;51.57
37792;BME280;29527;55.766;37.570;2023-02-12T11:54:55;99855.28;;;-1.46;52.13
37792;BME280;29527;55.766;37.570;2023-02-12T11:58:00;99871.72;;;-1.11;52.23
37792;BME280;29527;55.766;37.570;2023-02-12T12:00:28;99890.03;;;-0.81;52.02
37792;BME280;29527;55.766;37.570;2023-02-12T12:03:14;99883.13;;;-0.83;51.96
37792;BME280;29527;55.766;37.570;2023-02-12T12:05:52;99882.25;;;-0.84;51.66
37792;BME280;29527;55.766;37.570;2023-02-12T12:08:29;99899.25;;;-0.67;51.60
37792;BME280;29527;55.766;37.570;2023-02-12T12:11:21;99876.63;;;-0.73;51.49
37792;BME280;29527;55.766;37.570;2023-02-12T12:14:03;99878.16;;;-0.66;51.81
37792;BME280;29527;55.766;37.570;2023-02-12T12:16:38;99923.72;;;-0.38;51.33
37792;BME280;29527;55.766;37.570;2023-02-12T12:19:42;99922.69;;;-0.34;50.60
37792;BME280;29527;55.766;37.570;2023-02-12T12:25:19;99932.63;;;-0.69;51.50
37792;BME280;29527;55.766;37.570;2023-02-12T12:42:06;99957.22;;;-1.01;51.82
37792;BME280;29527;55.766;37.570;2023-02-12T12:44:44;99969.56;;;-1.03;52.62
37792;BME280;29527;55.766;37.570;2023-02-12T12:47:51;99983.59;;;-1.04;52.50
37792;BME280;29527;55.766;37.570;2023-02-12T12:53:49;99983.88;;;-0.83;51.63
37792;BME280;29527;55.766;37.570;2023-02-12T13:09:44;100011.09;;;-1.16;52.13
37792;BME280;29527;55.766;37.570;2023-02-12T13:15:02;100017.34;;;-1.18;52.25
37792;BME280;29527;55.766;37.570;2023-02-12T13:26:03;100035.47;;;-1.74;52.46
37792;BME280;29527;55.766;37.570;2023-02-12T13:28:54;100038.59;;;-1.94;53.37
37792;BME280;29527;55.766;37.570;2023-02-12T13:31:23;100035.63;;;-2.14;53.73
37792;BME280;29527;55.766;37.570;2023-02-12T13:34:00;100048.88;;;-2.19;53.71
37792;BME280;29527;55.766;37.570;2023-02-12T13:36:26;100041.25;;;-2.30;54.02
37792;BME280;29527;55.766;37.570;2023-02-12T13:38:55;100052.59;;;-2.29;54.22
37792;BME280;29527;55.766;37.570;2023-02-12T13:41:22;100056.25;;;-2.35;54.26
37792;BME280;29527;55.766;37.570;2023-02-12T13:44:00;100024.38;;;-2.56;54.43
37792;BME280;29527;55.766;37.570;2023-02-12T13:46:32;100064.44;;;-2.51;54.64
37792;BME280;29527;55.766;37.570;2023-02-12T13:57:15;100066.72;;;-2.73;55.86
37792;BME280;29527;55.766;37.570;2023-02-12T13:59:46;100074.59;;;-2.75;55.88
37792;BME280;29527;55.766;37.570;2023-02-12T14:04:57;100072.84;;;-2.74;55.24
37792;BME280;29527;55.766;37.570;2023-02-12T14:07:45;100084.09;;;-2.69;55.58
37792;BME280;29527;55.766;37.570;2023-02-12T14:10:27;100079.00;;;-2.77;55.65
37792;BME280;29527;55.766;37.570;2023-02-12T14:12:57;100045.56;;;-3.06;55.31
37792;BME280;29527;55.766;37.570;2023-02-12T14:15:35;100090.75;;;-2.96;55.88
37792;BME280;29527;55.766;37.570;2023-02-12T14:20:32;100097.31;;;-3.19;56.34
37792;BME280;29527;55.766;37.570;2023-02-12T14:25:31;100104.34;;;-3.21;56.30
37792;BME280;29527;55.766;37.570;2023-02-12T14:30:39;100113.25;;;-3.30;57.17
37792;BME280;29527;55.766;37.570;2023-02-12T14:33:25;100112.34;;;-3.29;57.05
37792;BME280;29527;55.766;37.570;2023-02-12T14:41:47;100131.06;;;-3.49;57.19
37792;BME280;29527;55.766;37.570;2023-02-12T14:47:03;100132.97;;;-3.59;58.02
37792;BME280;29527;55.766;37.570;2023-02-12T14:54:53;100151.78;;;-3.90;58.75
37792;BME280;29527;55.766;37.570;2023-02-12T15:02:44;100163.41;;;-4.08;59.02
37792;BME280;29527;55.766;37.570;2023-02-12T15:05:18;100166.91;;;-4.11;59.59
37792;BME280;29527;55.766;37.570;2023-02-12T15:07:55;100170.44;;;-4.13;60.08
37792;BME280;29527;55.766;37.570;2023-02-12T15:10:28;100133.34;;;-4.40;60.20
37792;BME280;29527;55.766;37.570;2023-02-12T15:13:07;100181.88;;;-4.22;60.35
37792;BME280;29527;55.766;37.570;2023-02-12T15:15:51;100181.03;;;-4.23;59.99
37792;BME280;29527;55.766;37.570;2023-02-12T15:18:41;100169.88;;;-4.36;60.54
37792;BME280;29527;55.766;37.570;2023-02-12T15:21:23;100191.59;;;-4.29;60.82
37792;BME280;29527;55.766;37.570;2023-02-12T15:24:23;100200.31;;;-4.30;60.50
37792;BME280;29527;55.766;37.570;2023-02-12T15:26:51;100197.81;;;-4.38;60.92
37792;BME280;29527;55.766;37.570;2023-02-12T15:29:25;100196.97;;;-4.41;61.15
37792;BME280;29527;55.766;37.570;2023-02-12T15:31:53;100199.63;;;-4.43;61.52
37792;BME280;29527;55.766;37.570;2023-02-12T15:34:22;100198.72;;;-4.43;61.40
37792;BME280;29527;55.766;37.570;2023-02-12T15:36:48;100173.66;;;-4.58;61.13
37792;BME280;29527;55.766;37.570;2023-02-12T15:39:17;100194.44;;;-4.48;61.32